Relevés horaires Matro (Suisse)


Relevés horaires à Matro - Vendredi 15 Juill. 2022
Heure UTC1 Température [°C] Vent [km/h] Hum. [%] Pres.4 [hPa] Visi. [Km] Nébu. [octa] Préc.5 [mm] Cond.
2m. Res. Ros. Dir.2 Vit. Moy. Raf.3
23:00 13.7 12 4.3 NNO 20.4 -- 37.0 53 850(0.3/3h) -- -- -- --
22:00 13.8 11.6 4.9 NNO 29.6 -- 46.3 55 850(0.6/3h) -- -- -- --
21:00 14.3 12.1 5.5 NNO 31.5 -- 44.4 55 850(0.5/3h) -- -- -- --
20:00 15.4 13.7 4.6 NNO 27.8 -- 35.2 48 850(0.5/3h) -- -- -- --
19:00 15.7 14.4 5.8 NNO 22.2 -- 31.5 52 850(0.3/3h) -- -- -- --
18:00 16.3 15.4 7.1 NNO 18.5 -- 27.8 54 850(0.1/3h) -- -- -- --
17:00 17.6 17.6 7.2 O 7.4 -- 20.4 50 850(-0.1/3h) -- -- -- --
16:00 18.2 18.2 5.6 S 7.4 -- 14.8 44 850(-0.3/3h) -- -- -- --
15:00 18.3 18.3 4.0 S 5.6 -- 27.8 39 850(0.1/3h) -- -- -- --
14:00 19.4 19.4 4.9 SSE 11.1 -- 24.1 38 850(-0.3/3h) -- -- -- --
13:00 18.8 18.8 4.6 S 9.3 -- 27.8 39 850(-0.4/3h) -- -- -- --
12:00 18.4 18.4 5.3 SO 11.1 -- 31.5 42 850(-0.2/3h) -- -- -- --
11:00 17.7 17.7 4.5 SO 9.3 -- 24.1 42 850(0.0/3h) -- -- -- --
10:00 15.8 15.8 3.0 O 7.4 -- 22.2 42 850(0.3/3h) -- -- -- --
09:00 16.0 16.0 3.6 ONO 5.6 -- 31.5 43 850(0.1/3h) -- -- -- --
08:00 14.1 13.4 2.4 NNO 11.1 -- 29.6 45 850(0.2/3h) -- -- -- --
07:00 14.0 12.1 3.0 NNO 24.1 -- 31.5 47 850(0.1/3h) -- -- -- --
06:00 13.8 12.3 2.3 NNO 18.5 -- 27.8 46 850(0.0/3h) -- -- -- --
05:00 14.0 12.5 2.5 NNO 18.5 -- 24.1 46 850(-0.4/3h) -- -- -- --
04:00 13.9 12.6 2.6 NNO 16.7 -- 27.8 46 850(-0.7/3h) -- -- -- --
03:00 14.0 12.7 3.1 NO 16.7 -- 20.4 48 850(-1.2/3h) -- -- -- --
02:00 13.8 12.8 4.7 NNO 13.0 -- 16.7 54 850(-1.3/3h) -- -- -- --
01:00 14.1 13 4.9 NNO 14.8 -- 18.5 54 850(-1.3/3h) -- -- -- --
00:00 13.9 12.9 8.3 NO 13.0 -- 18.5 69 850(-1.0/3h) -- -- -- --

1 Coordinated Universal Time. Actuellement il est 00:00 locale et 22:00 UTC.

2 Le vent souffle depuis la direction indiquée vers la direction oposée.

3 Les rafales max. sont disponible 40 min après l'heure du relevé.

4 Pour les stations d'altitude (plus de 600m) le géopotentiel du niveau le plus proche de la pression obligatoire est indiqué.

5 Les stations disposant d'un diffuseur peuvent indiquer "trace". Cela signifie que des précipitations ont touchés le sol mais que la quantité est inférieure à 0.1 mm.

Copyright

Les données affichées sur cette page sont la propriété exclusive de Météo Suisse.

Récapitulatif de la journée
Température [°C] Vent [km/h] Ensoleillement4 [h] Precipitations totale5 [mm] Pression [Hpa]
Min1 Max.2 Moy.3 Max. Min Max.
13.5 19.8 0 46.3 12 h 24 min 0 850.0 850.0

1 Température minimale relevée entre 18:00 UTC la veille et 18:00 UTC le jour donné.

2 Température maximale relevée entre 06:00 UTC le jour donné et 06:00 UTC le lendemain.

3 Vent moyen de la journée basé sur les relevés horaires.

4 Ensoleillement en heures relevé entre 06:00 UTC la veille et 06:00 UTC le jour donné.

5 Précipitations totales tombées entre 06:00 UTC la jour donné et 06:00 UTC le lendemain.

Graphiques horaires